createdAt,value
2018-08-23T00:01:58.337Z,4.17
2018-08-23T00:04:28.774Z,4.43
2018-08-23T00:07:01.852Z,3.97
2018-08-23T00:09:36.664Z,4.13
2018-08-23T00:12:07.357Z,4.50
2018-08-23T00:14:36.966Z,4.87
2018-08-23T00:17:06.717Z,3.90
2018-08-23T00:19:37.649Z,4.30
2018-08-23T00:22:08.250Z,4.00
2018-08-23T00:24:39.119Z,4.20
2018-08-23T00:27:09.099Z,4.93
2018-08-23T00:29:40.071Z,4.03
2018-08-23T00:32:10.684Z,4.23
2018-08-23T00:34:41.052Z,4.23
2018-08-23T00:37:13.374Z,4.73
2018-08-23T00:39:43.243Z,5.03
2018-08-23T00:42:13.767Z,4.87
2018-08-23T00:44:55.865Z,4.70
2018-08-23T00:47:30.686Z,4.20
2018-08-23T00:50:00.928Z,4.23
2018-08-23T00:52:39.725Z,4.60
2018-08-23T00:55:15.828Z,4.70
2018-08-23T00:57:46.494Z,4.70
2018-08-23T01:00:20.581Z,5.17
2018-08-23T01:02:51.454Z,4.70
2018-08-23T01:05:26.451Z,5.50
2018-08-23T01:07:57.068Z,4.57
2018-08-23T01:10:27.690Z,4.50
2018-08-23T01:13:00.142Z,4.37
2018-08-23T01:15:31.449Z,4.00
2018-08-23T01:18:15.019Z,4.00
2018-08-23T01:20:46.181Z,4.00
2018-08-23T01:23:16.282Z,4.53
2018-08-23T01:25:48.092Z,4.20
2018-08-23T01:28:18.332Z,4.23
2018-08-23T01:30:49.050Z,4.77
2018-08-23T01:33:21.577Z,5.10
2018-08-23T01:35:52.588Z,3.90
2018-08-23T01:38:23.856Z,4.70
2018-08-23T01:40:59.701Z,5.13
2018-08-23T01:43:29.442Z,5.40
2018-08-23T01:45:59.765Z,4.97
2018-08-23T01:48:29.627Z,4.57
2018-08-23T01:50:59.076Z,5.03
2018-08-23T01:53:33.396Z,4.77
2018-08-23T01:56:03.319Z,4.60
2018-08-23T01:58:35.155Z,4.73
2018-08-23T02:01:13.845Z,4.93
2018-08-23T02:03:44.164Z,4.63
2018-08-23T02:06:15.396Z,5.17
2018-08-23T02:08:46.664Z,4.87
2018-08-23T02:11:16.776Z,4.80
2018-08-23T02:13:49.752Z,4.90
2018-08-23T02:16:21.588Z,4.93
2018-08-23T02:18:52.439Z,5.20
2018-08-23T02:21:22.383Z,5.20
2018-08-23T02:23:54.129Z,5.30
2018-08-23T02:26:24.211Z,5.33
2018-08-23T02:28:53.859Z,5.00
2018-08-23T02:31:24.293Z,4.37
2018-08-23T02:33:54.205Z,5.17
2018-08-23T02:36:24.942Z,5.00
2018-08-23T02:38:57.765Z,4.67
2018-08-23T02:41:27.925Z,5.40
2018-08-23T02:43:58.032Z,5.33
2018-08-23T02:46:28.912Z,5.23
2018-08-23T02:48:59.010Z,4.90
2018-08-23T02:51:40.566Z,5.00
2018-08-23T02:54:13.427Z,4.40
2018-08-23T02:56:48.257Z,4.73
2018-08-23T02:59:18.974Z,5.20
2018-08-23T03:01:49.877Z,4.60
2018-08-23T03:04:22.912Z,4.87
2018-08-23T03:06:54.900Z,5.00
2018-08-23T03:09:28.600Z,5.30
2018-08-23T03:12:00.887Z,5.33
2018-08-23T03:14:31.968Z,5.37
2018-08-23T03:17:38.647Z,4.93
2018-08-23T03:20:17.079Z,5.07
2018-08-23T03:22:48.743Z,4.97
2018-08-23T03:25:19.885Z,5.00
2018-08-23T03:27:50.166Z,5.40
2018-08-23T03:30:20.600Z,5.23
2018-08-23T03:32:51.282Z,4.80
2018-08-23T03:35:20.942Z,5.27
2018-08-23T03:37:52.007Z,4.87
2018-08-23T03:40:22.497Z,4.87
2018-08-23T03:42:52.866Z,4.90
2018-08-23T03:45:28.971Z,5.23
2018-08-23T03:47:59.330Z,5.00
2018-08-23T03:50:30.391Z,4.97
2018-08-23T03:53:01.496Z,4.93
2018-08-23T03:55:37.066Z,4.93
2018-08-23T03:58:06.821Z,5.47
2018-08-23T04:00:46.535Z,4.80
2018-08-23T04:03:20.340Z,5.17
2018-08-23T04:05:50.219Z,5.70
2018-08-23T04:08:22.853Z,5.20
2018-08-23T04:10:53.993Z,4.70
2018-08-23T04:13:23.946Z,5.63
2018-08-23T04:15:53.553Z,4.77
2018-08-23T04:18:23.852Z,5.20
2018-08-23T04:20:58.745Z,5.63
2018-08-23T04:23:28.563Z,5.37
2018-08-23T04:26:01.247Z,5.30
2018-08-23T04:28:31.280Z,5.83
2018-08-23T04:31:02.653Z,5.80
2018-08-23T04:33:32.545Z,5.67
2018-08-23T04:36:02.904Z,5.60
2018-08-23T04:38:33.310Z,5.87
2018-08-23T04:41:09.173Z,5.33
2018-08-23T04:43:39.128Z,5.80
2018-08-23T04:46:22.005Z,6.27
2018-08-23T04:48:51.718Z,5.73
2018-08-23T04:51:21.386Z,5.60
2018-08-23T04:53:51.766Z,5.97
2018-08-23T04:56:23.087Z,5.80
2018-08-23T04:58:52.774Z,5.33
2018-08-23T05:01:22.677Z,5.70
2018-08-23T05:03:53.160Z,7.20
2018-08-23T05:06:22.888Z,6.37
2018-08-23T05:08:52.402Z,5.90
2018-08-23T05:11:21.863Z,5.70
2018-08-23T05:13:53.388Z,5.77
2018-08-23T05:16:23.126Z,6.67
2018-08-23T05:18:54.210Z,5.67
2018-08-23T05:21:24.431Z,5.40
2018-08-23T05:23:58.688Z,5.30
2018-08-23T05:26:30.372Z,5.50
2018-08-23T05:29:04.470Z,5.73
2018-08-23T05:31:34.706Z,5.80
2018-08-23T05:34:09.093Z,5.60
2018-08-23T05:36:40.262Z,5.87
2018-08-23T05:39:11.981Z,6.00
2018-08-23T05:41:42.357Z,5.30
2018-08-23T05:44:21.759Z,6.53
2018-08-23T05:46:58.516Z,7.30
2018-08-23T05:49:31.941Z,6.90
2018-08-23T05:52:01.743Z,6.23
2018-08-23T05:54:33.399Z,7.03
2018-08-23T05:57:05.105Z,6.77
2018-08-23T05:59:35.998Z,6.90
2018-08-23T06:02:06.670Z,7.60
2018-08-23T06:04:43.225Z,6.90
2018-08-23T06:07:13.968Z,7.03
2018-08-23T06:09:48.264Z,7.20
2018-08-23T06:12:18.946Z,7.20
2018-08-23T06:14:49.425Z,7.23
2018-08-23T06:17:19.665Z,8.53
2018-08-23T06:19:50.028Z,6.87
2018-08-23T06:22:20.106Z,7.17
2018-08-23T06:24:50.943Z,6.63
2018-08-23T06:27:20.828Z,6.87
2018-08-23T06:29:51.235Z,6.83
2018-08-23T06:32:22.278Z,7.50
2018-08-23T06:34:53.188Z,6.60
2018-08-23T06:37:25.977Z,6.43
2018-08-23T06:39:57.855Z,5.90
2018-08-23T06:43:08.937Z,5.90
2018-08-23T06:45:40.254Z,5.47
2018-08-23T06:48:10.552Z,6.10
2018-08-23T06:50:49.038Z,5.43
2018-08-23T06:53:20.816Z,5.60
2018-08-23T06:55:50.740Z,6.20
2018-08-23T06:58:20.214Z,6.20
2018-08-23T07:00:53.246Z,6.13
2018-08-23T07:03:22.893Z,6.80
2018-08-23T07:05:52.404Z,5.50
2018-08-23T07:08:24.702Z,5.87
2018-08-23T07:11:02.016Z,5.10
2018-08-23T07:13:33.004Z,6.07
2018-08-23T07:16:03.995Z,5.27
2018-08-23T07:18:35.774Z,5.50
2018-08-23T07:21:09.031Z,5.57
2018-08-23T07:23:42.221Z,5.40
2018-08-23T07:26:18.301Z,5.73
2018-08-23T07:28:48.928Z,5.60
2018-08-23T07:31:20.204Z,5.60
2018-08-23T07:33:58.907Z,5.80
2018-08-23T07:36:33.910Z,5.30
2018-08-23T07:39:15.077Z,4.67
2018-08-23T07:42:19.031Z,4.80
2018-08-23T07:48:11.919Z,4.80
2018-08-23T07:50:55.182Z,5.50
2018-08-23T07:53:33.140Z,4.60
2018-08-23T07:56:14.682Z,4.80
2018-08-23T07:58:51.363Z,4.70
2018-08-23T08:01:31.469Z,4.40
2018-08-23T08:04:23.057Z,4.90
2018-08-23T08:06:56.488Z,4.97
2018-08-23T08:09:30.193Z,4.80
2018-08-23T08:12:05.740Z,4.80
2018-08-23T08:14:39.496Z,4.60
2018-08-23T08:17:23.425Z,5.27
2018-08-23T08:19:58.252Z,4.17
2018-08-23T08:22:29.741Z,5.03
2018-08-23T08:25:09.797Z,5.27
2018-08-23T08:27:40.928Z,4.87
2018-08-23T08:30:15.604Z,5.27
2018-08-23T08:32:46.179Z,5.17
2018-08-23T08:35:22.396Z,5.10
2018-08-23T08:37:55.691Z,4.90
2018-08-23T08:40:38.025Z,4.80
2018-08-23T08:43:16.793Z,4.43
2018-08-23T08:45:54.713Z,4.57
2018-08-23T08:48:36.837Z,4.17
2018-08-23T08:51:19.465Z,4.20
2018-08-23T08:53:49.137Z,4.43
2018-08-23T08:56:23.550Z,4.80
2018-08-23T08:58:53.292Z,4.90
2018-08-23T09:01:23.637Z,4.50
2018-08-23T09:03:53.062Z,4.80
2018-08-23T09:06:23.938Z,4.30
2018-08-23T09:08:53.931Z,4.47
2018-08-23T09:11:25.221Z,4.33
2018-08-23T09:13:54.994Z,4.10
2018-08-23T09:16:25.264Z,4.53
2018-08-23T09:19:00.583Z,4.70
2018-08-23T09:21:31.098Z,4.57
2018-08-23T09:24:38.906Z,4.70
2018-08-23T09:27:17.985Z,4.23
2018-08-23T09:29:48.448Z,3.90
2018-08-23T09:32:24.411Z,4.20
2018-08-23T09:35:05.815Z,4.17
2018-08-23T09:37:39.078Z,4.20
2018-08-23T09:40:09.390Z,4.10
2018-08-23T09:42:39.510Z,4.53
2018-08-23T09:45:15.711Z,3.90
2018-08-23T09:47:45.430Z,4.80
2018-08-23T09:50:15.651Z,4.40
2018-08-23T09:52:47.858Z,5.00
2018-08-23T09:55:19.286Z,4.30
2018-08-23T09:57:52.144Z,4.17
2018-08-23T10:00:30.382Z,4.23
2018-08-23T10:03:05.400Z,4.73
2018-08-23T10:05:45.966Z,3.97
2018-08-23T10:08:22.400Z,4.60
2018-08-23T10:10:57.178Z,4.77
2018-08-23T10:13:35.763Z,5.50
2018-08-23T10:16:13.873Z,4.70
2018-08-23T10:18:50.937Z,3.90
2018-08-23T10:21:26.405Z,4.30
2018-08-23T10:24:13.738Z,4.53
2018-08-23T10:26:44.301Z,4.50
2018-08-23T10:29:14.605Z,3.90
2018-08-23T10:31:45.165Z,4.17
2018-08-23T10:34:14.919Z,4.37
2018-08-23T10:36:45.050Z,4.53
2018-08-23T10:39:16.383Z,4.17
2018-08-23T10:41:46.222Z,4.30
2018-08-23T10:44:16.959Z,3.80
2018-08-23T10:47:01.596Z,3.37
2018-08-23T10:49:32.082Z,4.20
2018-08-23T10:52:04.254Z,4.20
2018-08-23T10:54:34.358Z,4.27
2018-08-23T10:57:11.134Z,3.60
2018-08-23T10:59:42.912Z,5.13
2018-08-23T11:02:13.527Z,4.20
2018-08-23T11:04:44.460Z,3.93
2018-08-23T11:07:16.365Z,3.90
2018-08-23T11:09:53.788Z,4.10
2018-08-23T11:12:30.609Z,3.97
2018-08-23T11:15:10.468Z,3.53
2018-08-23T11:17:57.503Z,3.90
2018-08-23T11:20:30.834Z,3.80
2018-08-23T11:23:04.828Z,3.47
2018-08-23T11:25:36.497Z,4.00
2018-08-23T11:28:12.416Z,3.83
2018-08-23T11:30:42.453Z,3.90
2018-08-23T11:33:12.289Z,3.47
2018-08-23T11:35:42.912Z,3.80
2018-08-23T11:38:12.704Z,3.70
2018-08-23T11:40:43.056Z,3.60
2018-08-23T11:43:12.993Z,3.47
2018-08-23T11:45:42.640Z,2.90
2018-08-23T11:48:19.250Z,3.90
2018-08-23T11:50:50.052Z,3.67
2018-08-23T11:53:20.739Z,3.30
2018-08-23T11:55:51.744Z,4.07
2018-08-23T11:58:22.155Z,3.70
2018-08-23T12:00:53.426Z,3.50
2018-08-23T12:03:24.081Z,3.23
2018-08-23T12:05:57.098Z,3.90
2018-08-23T12:08:34.765Z,3.63
2018-08-23T12:11:05.910Z,3.73
2018-08-23T12:13:37.126Z,3.70
2018-08-23T12:16:10.577Z,3.90
2018-08-23T12:18:40.150Z,3.93
2018-08-23T12:21:10.839Z,3.83
2018-08-23T12:23:40.437Z,4.23
2018-08-23T12:26:10.726Z,3.90
2018-08-23T12:28:45.178Z,4.00
2018-08-23T12:31:16.919Z,3.67
2018-08-23T12:33:52.235Z,3.20
2018-08-23T12:36:27.160Z,4.00
2018-08-23T12:39:06.362Z,4.33
2018-08-23T12:41:41.125Z,3.60
2018-08-23T12:44:11.397Z,3.63
2018-08-23T12:46:40.987Z,3.80
2018-08-23T12:49:11.138Z,3.47
2018-08-23T12:51:40.830Z,3.53
2018-08-23T12:54:10.229Z,3.67
2018-08-23T12:56:41.055Z,3.27
2018-08-23T12:59:11.146Z,3.80
2018-08-23T13:01:40.783Z,3.20
2018-08-23T13:04:10.563Z,4.10
2018-08-23T13:06:40.837Z,4.00
2018-08-23T13:09:10.357Z,3.80
2018-08-23T13:11:40.438Z,3.40
2018-08-23T13:14:09.845Z,3.90
2018-08-23T13:16:39.738Z,3.93
2018-08-23T13:19:10.087Z,3.70
2018-08-23T13:21:39.874Z,4.27
2018-08-23T13:24:10.282Z,4.07
2018-08-23T13:26:45.941Z,3.87
2018-08-23T13:29:16.126Z,3.80
2018-08-23T13:31:46.809Z,5.30
2018-08-23T13:34:17.295Z,5.53
2018-08-23T13:36:48.474Z,5.20
2018-08-23T13:39:21.276Z,6.60
2018-08-23T13:41:53.494Z,6.33
2018-08-23T13:44:23.164Z,5.87
2018-08-23T13:46:52.843Z,5.50
2018-08-23T13:49:23.350Z,5.37
2018-08-23T13:51:53.866Z,5.40
2018-08-23T13:54:26.540Z,4.73
2018-08-23T13:56:56.416Z,5.07
2018-08-23T13:59:27.072Z,5.40
2018-08-23T14:01:56.866Z,5.40
2018-08-23T14:04:26.467Z,5.10
2018-08-23T14:06:55.936Z,5.20
2018-08-23T14:09:25.491Z,5.70
2018-08-23T14:11:57.694Z,5.53
2018-08-23T14:14:30.496Z,5.87
2018-08-23T14:17:10.248Z,5.60
2018-08-23T14:19:40.440Z,6.03
2018-08-23T14:22:10.473Z,4.60
2018-08-23T14:24:40.073Z,5.40
2018-08-23T14:27:13.493Z,5.00
2018-08-23T14:29:46.822Z,4.60
2018-08-23T14:32:17.067Z,3.80
2018-08-23T14:34:47.981Z,4.30
2018-08-23T14:37:22.410Z,4.10
2018-08-23T14:39:53.250Z,4.03
2018-08-23T14:42:23.802Z,3.73
2018-08-23T14:44:54.551Z,4.10
2018-08-23T14:47:32.006Z,3.93
2018-08-23T14:50:03.153Z,3.77
2018-08-23T14:52:33.196Z,3.87
2018-08-23T14:55:03.686Z,3.67
2018-08-23T14:57:38.459Z,3.70
2018-08-23T15:00:08.556Z,3.50
2018-08-23T15:02:38.467Z,3.53
2018-08-23T15:05:08.736Z,3.83
2018-08-23T15:07:41.593Z,4.10
2018-08-23T15:10:15.959Z,3.80
2018-08-23T15:12:47.241Z,3.60
2018-08-23T15:15:19.099Z,3.83
2018-08-23T15:17:50.904Z,3.90
2018-08-23T15:20:21.503Z,4.20
2018-08-23T15:22:52.943Z,3.80
2018-08-23T15:25:28.483Z,3.43
2018-08-23T15:28:01.244Z,3.40
2018-08-23T15:30:35.980Z,4.07
2018-08-23T15:33:09.720Z,3.73
2018-08-23T15:35:39.952Z,3.90
2018-08-23T15:38:10.723Z,4.33
2018-08-23T15:40:41.917Z,3.67
2018-08-23T15:43:15.303Z,3.63
2018-08-23T15:45:45.606Z,4.50
2018-08-23T15:48:21.421Z,4.00
2018-08-23T15:50:54.421Z,4.37
2018-08-23T15:53:25.309Z,3.67
2018-08-23T15:55:56.959Z,4.57
2018-08-23T15:58:28.036Z,3.73
2018-08-23T16:00:58.085Z,4.00
2018-08-23T16:03:28.541Z,4.67
2018-08-23T16:06:01.509Z,4.50
2018-08-23T16:09:38.394Z,4.10
2018-08-23T16:12:10.497Z,3.90
2018-08-23T16:14:40.258Z,4.07
2018-08-23T16:17:15.119Z,4.07
2018-08-23T16:19:50.838Z,3.80
2018-08-23T16:22:22.562Z,4.60
2018-08-23T16:24:52.472Z,3.90
2018-08-23T16:27:22.820Z,4.10
2018-08-23T16:29:53.579Z,3.90
2018-08-23T16:32:31.007Z,3.70
2018-08-23T16:35:00.795Z,3.57
2018-08-23T16:37:32.502Z,3.77
2018-08-23T16:40:03.662Z,4.63
2018-08-23T16:42:33.620Z,4.33
2018-08-23T16:45:06.237Z,4.20
2018-08-23T16:47:36.646Z,4.60
2018-08-23T16:50:07.419Z,4.30
2018-08-23T16:52:37.027Z,5.70
2018-08-23T16:55:06.847Z,4.57
2018-08-23T16:57:36.563Z,4.60
2018-08-23T17:00:06.854Z,7.80
2018-08-23T17:02:37.049Z,4.93
2018-08-23T17:05:07.374Z,4.70
2018-08-23T17:07:39.012Z,4.50
2018-08-23T17:10:08.787Z,4.47
2018-08-23T17:12:38.763Z,4.67
2018-08-23T17:15:13.469Z,5.57
2018-08-23T17:17:49.118Z,5.73
2018-08-23T17:20:19.170Z,4.20
2018-08-23T17:22:50.456Z,4.97
2018-08-23T17:25:21.396Z,4.67
2018-08-23T17:27:52.130Z,3.83
2018-08-23T17:30:22.587Z,4.40
2018-08-23T17:32:53.008Z,4.50
2018-08-23T17:35:24.135Z,4.33
2018-08-23T17:37:54.998Z,4.67
2018-08-23T17:40:25.583Z,4.77
2018-08-23T17:42:56.590Z,5.10
2018-08-23T17:45:26.756Z,4.50
2018-08-23T17:47:59.598Z,4.73
2018-08-23T17:50:32.325Z,4.87
2018-08-23T17:53:03.055Z,4.90
2018-08-23T17:55:36.489Z,4.60
2018-08-23T17:58:06.222Z,4.30
2018-08-23T18:00:37.220Z,4.60
2018-08-23T18:03:08.442Z,4.57
2018-08-23T18:05:38.323Z,5.80
2018-08-23T18:08:08.300Z,4.60
2018-08-23T18:10:40.943Z,5.13
2018-08-23T18:13:11.566Z,4.90
2018-08-23T18:15:47.828Z,5.27
2018-08-23T18:18:18.533Z,5.80
2018-08-23T18:20:48.149Z,5.10
2018-08-23T18:23:19.052Z,5.47
2018-08-23T18:25:49.712Z,5.00
2018-08-23T18:28:21.156Z,6.10
2018-08-23T18:30:51.180Z,5.13
2018-08-23T18:33:22.725Z,5.50
2018-08-23T18:35:54.938Z,6.20
2018-08-23T18:38:26.295Z,4.63
2018-08-23T18:40:56.245Z,4.87
2018-08-23T18:43:27.276Z,5.50
2018-08-23T18:45:57.764Z,5.57
2018-08-23T18:48:29.010Z,6.10
2018-08-23T18:50:58.862Z,5.87
2018-08-23T18:53:30.962Z,5.60
2018-08-23T18:56:03.314Z,5.23
2018-08-23T18:58:33.259Z,5.83
2018-08-23T19:01:03.235Z,6.23
2018-08-23T19:03:36.070Z,5.30
2018-08-23T19:06:07.123Z,5.60
2018-08-23T19:08:38.379Z,5.23
2018-08-23T19:11:09.111Z,5.27
2018-08-23T19:13:39.291Z,5.30
2018-08-23T19:16:15.932Z,5.20
2018-08-23T19:18:46.638Z,6.53
2018-08-23T19:21:16.392Z,5.70
2018-08-23T19:23:45.933Z,5.20
2018-08-23T19:26:15.853Z,5.63
2018-08-23T19:28:45.745Z,6.10
2018-08-23T19:31:15.854Z,5.60
2018-08-23T19:33:45.647Z,6.13
2018-08-23T19:36:15.513Z,5.87
2018-08-23T19:38:45.216Z,5.40
2018-08-23T19:41:15.814Z,5.70
2018-08-23T19:43:50.897Z,5.40
2018-08-23T19:46:29.206Z,5.60
2018-08-23T19:49:04.437Z,5.00
2018-08-23T19:51:33.990Z,5.70
2018-08-23T19:54:03.815Z,5.77
2018-08-23T19:56:33.844Z,5.97
2018-08-23T19:59:03.931Z,5.40
2018-08-23T20:01:33.609Z,6.20
2018-08-23T20:04:03.580Z,5.57
2018-08-23T20:06:34.628Z,5.80
2018-08-23T20:09:05.746Z,5.70
2018-08-23T20:11:36.901Z,5.43
2018-08-23T20:14:07.310Z,5.67
2018-08-23T20:16:37.808Z,5.93
2018-08-23T20:19:07.457Z,5.97
2018-08-23T20:21:37.388Z,6.17
2018-08-23T20:24:07.602Z,6.00
2018-08-23T20:26:37.394Z,4.97
2018-08-23T20:29:09.040Z,5.73
2018-08-23T20:31:38.964Z,5.97
2018-08-23T20:34:09.915Z,5.70
2018-08-23T20:36:39.889Z,5.80
2018-08-23T20:39:13.136Z,6.47
2018-08-23T20:41:43.916Z,6.00
2018-08-23T20:44:14.731Z,7.13
2018-08-23T20:46:44.341Z,6.00
2018-08-23T20:49:14.299Z,6.00
2018-08-23T20:51:44.623Z,5.97
2018-08-23T20:54:14.170Z,6.30
2018-08-23T20:56:44.309Z,6.27
2018-08-23T20:59:14.398Z,6.27
2018-08-23T21:01:45.110Z,5.37
2018-08-23T21:04:14.857Z,5.37
2018-08-23T21:06:44.823Z,6.10
2018-08-23T21:09:14.630Z,5.80
2018-08-23T21:11:44.318Z,5.83
2018-08-23T21:14:14.343Z,6.00
2018-08-23T21:16:44.016Z,6.43
2018-08-23T21:19:13.514Z,6.30
2018-08-23T21:21:43.030Z,6.50
2018-08-23T21:24:12.672Z,6.50
2018-08-23T21:26:42.393Z,5.90
2018-08-23T21:29:12.454Z,5.83
2018-08-23T21:31:42.242Z,6.60
2018-08-23T21:34:11.782Z,5.73
2018-08-23T21:36:41.765Z,5.70
2018-08-23T21:39:11.249Z,6.40
2018-08-23T21:41:40.914Z,6.53
2018-08-23T21:44:11.408Z,5.57
2018-08-23T21:46:41.132Z,5.73
2018-08-23T21:49:10.623Z,6.20
2018-08-23T21:51:40.470Z,5.90
2018-08-23T21:54:15.210Z,5.90
2018-08-23T21:56:45.716Z,7.00
2018-08-23T21:59:15.968Z,6.00
2018-08-23T22:01:46.686Z,6.67
2018-08-23T22:04:16.722Z,6.57
2018-08-23T22:06:46.235Z,6.20
2018-08-23T22:09:18.503Z,6.37
2018-08-23T22:11:48.068Z,7.10
2018-08-23T22:14:17.511Z,6.53
2018-08-23T22:16:46.940Z,6.17
2018-08-23T22:19:16.837Z,6.03
2018-08-23T22:21:46.723Z,6.67
2018-08-23T22:24:16.449Z,6.30
2018-08-23T22:26:46.206Z,6.00
2018-08-23T22:29:16.878Z,6.53
2018-08-23T22:31:46.515Z,6.97
2018-08-23T22:34:16.812Z,7.13
2018-08-23T22:36:46.887Z,6.80
2018-08-23T22:39:16.900Z,6.47
2018-08-23T22:41:47.005Z,6.47
2018-08-23T22:44:17.356Z,7.00
2018-08-23T22:46:47.662Z,5.97
2018-08-23T22:49:17.238Z,6.37
2018-08-23T22:51:46.817Z,6.37
2018-08-23T22:54:16.999Z,5.77
2018-08-23T22:56:46.597Z,6.67
2018-08-23T22:59:16.553Z,6.43
2018-08-23T23:01:47.487Z,5.90
2018-08-23T23:04:28.541Z,6.00
2018-08-23T23:06:59.734Z,6.03
2018-08-23T23:09:30.967Z,6.20
2018-08-23T23:12:02.329Z,6.77
2018-08-23T23:14:31.938Z,5.93
2018-08-23T23:17:06.270Z,6.40
2018-08-23T23:19:35.817Z,5.90
2018-08-23T23:22:05.590Z,6.20
2018-08-23T23:24:40.475Z,6.57
2018-08-23T23:27:09.877Z,6.20
2018-08-23T23:29:39.333Z,6.00
2018-08-23T23:32:09.644Z,6.27
2018-08-23T23:34:39.148Z,6.50
2018-08-23T23:37:08.525Z,6.30
2018-08-23T23:39:38.988Z,6.13
2018-08-23T23:42:08.623Z,6.30
2018-08-23T23:44:38.395Z,6.33
2018-08-23T23:47:07.971Z,6.37
2018-08-23T23:49:37.489Z,6.17
2018-08-23T23:52:06.921Z,6.60
2018-08-23T23:54:36.487Z,6.83
2018-08-23T23:57:06.169Z,6.30
2018-08-23T23:59:36.754Z,6.53
